sensor_id;sensor_type;location;lat;lon;timestamp;pressure;altitude;pressure_sealevel;temperature;humidity
32197;BME280;18697;42.770;23.400;2022-10-30T00:02:10;96416.66;;;18.85;47.72
32197;BME280;18697;42.770;23.400;2022-10-30T00:04:35;96413.78;;;18.74;48.10
32197;BME280;18697;42.770;23.400;2022-10-30T00:07:00;96407.56;;;18.64;46.42
32197;BME280;18697;42.770;23.400;2022-10-30T00:09:26;96414.41;;;18.89;48.06
32197;BME280;18697;42.770;23.400;2022-10-30T00:11:51;96406.69;;;18.84;47.12
32197;BME280;18697;42.770;23.400;2022-10-30T00:14:16;96412.13;;;18.93;47.02
32197;BME280;18697;42.770;23.400;2022-10-30T00:16:42;96411.03;;;18.85;47.23
32197;BME280;18697;42.770;23.400;2022-10-30T00:19:07;96412.25;;;19.10;47.78
32197;BME280;18697;42.770;23.400;2022-10-30T00:21:33;96414.22;;;18.98;46.16
32197;BME280;18697;42.770;23.400;2022-10-30T00:23:58;96423.13;;;19.28;46.68
32197;BME280;18697;42.770;23.400;2022-10-30T00:26:23;96408.53;;;19.29;45.93
32197;BME280;18697;42.770;23.400;2022-10-30T00:28:54;96407.03;;;19.40;46.61
32197;BME280;18697;42.770;23.400;2022-10-30T00:31:20;96404.69;;;19.32;46.13
32197;BME280;18697;42.770;23.400;2022-10-30T00:33:50;96400.59;;;19.33;45.67
32197;BME280;18697;42.770;23.400;2022-10-30T00:36:16;96401.41;;;19.45;46.23
32197;BME280;18697;42.770;23.400;2022-10-30T00:38:41;96407.41;;;19.58;45.53
32197;BME280;18697;42.770;23.400;2022-10-30T00:41:13;96400.66;;;19.50;45.98
32197;BME280;18697;42.770;23.400;2022-10-30T00:43:39;96397.41;;;19.57;45.31
32197;BME280;18697;42.770;23.400;2022-10-30T00:48:37;96395.44;;;19.75;45.43
32197;BME280;18697;42.770;23.400;2022-10-30T00:51:07;96392.31;;;19.67;44.86
32197;BME280;18697;42.770;23.400;2022-10-30T00:53:34;96389.22;;;19.59;44.80
32197;BME280;18697;42.770;23.400;2022-10-30T00:56:03;96384.66;;;19.73;45.00
32197;BME280;18697;42.770;23.400;2022-10-30T00:58:40;96389.28;;;19.76;44.91
32197;BME280;18697;42.770;23.400;2022-10-30T01:01:09;96383.41;;;19.80;44.75
32197;BME280;18697;42.770;23.400;2022-10-30T01:03:38;96374.72;;;19.83;44.85
32197;BME280;18697;42.770;23.400;2022-10-30T01:06:08;96368.53;;;19.74;44.37
32197;BME280;18697;42.770;23.400;2022-10-30T01:08:36;96373.09;;;19.60;44.49
32197;BME280;18697;42.770;23.400;2022-10-30T01:11:02;96366.59;;;19.48;44.42
32197;BME280;18697;42.770;23.400;2022-10-30T01:13:29;96371.72;;;19.50;44.64
32197;BME280;18697;42.770;23.400;2022-10-30T01:18:55;96366.03;;;19.33;44.47
32197;BME280;18697;42.770;23.400;2022-10-30T01:24:33;96361.09;;;19.17;45.94
32197;BME280;18697;42.770;23.400;2022-10-30T01:33:28;96353.78;;;18.25;47.35
32197;BME280;18697;42.770;23.400;2022-10-30T01:35:39;96358.78;;;17.89;47.45
32197;BME280;18697;42.770;23.400;2022-10-30T01:38:28;96356.16;;;18.06;48.12
32197;BME280;18697;42.770;23.400;2022-10-30T01:40:55;96352.22;;;18.24;47.18
32197;BME280;18697;42.770;23.400;2022-10-30T01:43:20;96353.59;;;18.08;44.55
32197;BME280;18697;42.770;23.400;2022-10-30T01:45:51;96357.22;;;18.40;47.38
32197;BME280;18697;42.770;23.400;2022-10-30T01:54:22;96360.66;;;18.87;45.45
32197;BME280;18697;42.770;23.400;2022-10-30T02:00:10;96351.78;;;18.62;45.70
32197;BME280;18697;42.770;23.400;2022-10-30T02:02:37;96356.69;;;18.67;45.34
32197;BME280;18697;42.770;23.400;2022-10-30T02:05:04;96348.75;;;18.66;44.17
32197;BME280;18697;42.770;23.400;2022-10-30T02:07:30;96349.06;;;18.74;45.75
32197;BME280;18697;42.770;23.400;2022-10-30T02:09:56;96342.75;;;18.90;45.27
32197;BME280;18697;42.770;23.400;2022-10-30T02:12:22;96352.28;;;18.98;44.64
32197;BME280;18697;42.770;23.400;2022-10-30T02:14:54;96346.38;;;18.96;44.33
32197;BME280;18697;42.770;23.400;2022-10-30T02:17:20;96336.28;;;18.78;43.23
32197;BME280;18697;42.770;23.400;2022-10-30T02:19:46;96344.22;;;17.45;41.72
32197;BME280;18697;42.770;23.400;2022-10-30T02:22:11;96340.31;;;17.16;46.30
32197;BME280;18697;42.770;23.400;2022-10-30T02:24:37;96340.31;;;17.36;48.30
32197;BME280;18697;42.770;23.400;2022-10-30T02:27:02;96339.59;;;17.82;46.83
32197;BME280;18697;42.770;23.400;2022-10-30T02:29:28;96326.28;;;18.09;46.65
32197;BME280;18697;42.770;23.400;2022-10-30T02:31:53;96325.38;;;18.23;46.00
32197;BME280;18697;42.770;23.400;2022-10-30T02:34:19;96336.91;;;18.56;45.66
32197;BME280;18697;42.770;23.400;2022-10-30T02:36:44;96342.84;;;18.64;45.59
32197;BME280;18697;42.770;23.400;2022-10-30T02:39:10;96341.97;;;18.84;44.75
32197;BME280;18697;42.770;23.400;2022-10-30T02:41:35;96339.94;;;18.90;44.31
32197;BME280;18697;42.770;23.400;2022-10-30T02:44:01;96344.91;;;19.06;44.11
32197;BME280;18697;42.770;23.400;2022-10-30T02:46:27;96343.94;;;19.15;43.62
32197;BME280;18697;42.770;23.400;2022-10-30T02:48:52;96344.53;;;18.87;42.15
32197;BME280;18697;42.770;23.400;2022-10-30T02:51:18;96348.50;;;18.69;43.58
32197;BME280;18697;42.770;23.400;2022-10-30T02:53:43;96355.81;;;18.56;44.08
32197;BME280;18697;42.770;23.400;2022-10-30T02:56:10;96352.81;;;18.65;43.61
32197;BME280;18697;42.770;23.400;2022-10-30T02:58:36;96348.00;;;18.71;43.75
32197;BME280;18697;42.770;23.400;2022-10-30T03:01:13;96353.53;;;18.60;43.94
32197;BME280;18697;42.770;23.400;2022-10-30T03:03:39;96358.06;;;18.83;43.98
32197;BME280;18697;42.770;23.400;2022-10-30T03:06:07;96352.75;;;18.91;43.86
32197;BME280;18697;42.770;23.400;2022-10-30T03:08:33;96356.78;;;18.84;43.83
32197;BME280;18697;42.770;23.400;2022-10-30T03:11:03;96361.16;;;18.85;43.30
32197;BME280;18697;42.770;23.400;2022-10-30T03:13:30;96359.84;;;18.81;43.34
32197;BME280;18697;42.770;23.400;2022-10-30T03:16:05;96367.09;;;18.93;43.54
32197;BME280;18697;42.770;23.400;2022-10-30T03:18:31;96360.22;;;18.99;43.38
32197;BME280;18697;42.770;23.400;2022-10-30T03:21:02;96362.81;;;19.03;43.37
32197;BME280;18697;42.770;23.400;2022-10-30T03:23:28;96365.56;;;18.92;43.23
32197;BME280;18697;42.770;23.400;2022-10-30T03:25:55;96357.91;;;18.98;43.47
32197;BME280;18697;42.770;23.400;2022-10-30T03:28:22;96366.56;;;18.89;42.35
32197;BME280;18697;42.770;23.400;2022-10-30T03:30:47;96367.25;;;18.78;43.47
32197;BME280;18697;42.770;23.400;2022-10-30T03:33:13;96368.78;;;18.79;43.29
32197;BME280;18697;42.770;23.400;2022-10-30T03:35:38;96367.50;;;18.80;43.49
32197;BME280;18697;42.770;23.400;2022-10-30T03:38:03;96361.50;;;18.61;42.66
32197;BME280;18697;42.770;23.400;2022-10-30T03:40:29;96357.00;;;18.44;42.18
32197;BME280;18697;42.770;23.400;2022-10-30T03:42:54;96359.34;;;17.93;43.23
32197;BME280;18697;42.770;23.400;2022-10-30T03:45:19;96358.41;;;18.02;45.34
32197;BME280;18697;42.770;23.400;2022-10-30T03:47:45;96360.59;;;17.92;44.34
32197;BME280;18697;42.770;23.400;2022-10-30T03:50:10;96359.19;;;17.16;41.17
32197;BME280;18697;42.770;23.400;2022-10-30T03:52:35;96355.84;;;16.62;45.92
32197;BME280;18697;42.770;23.400;2022-10-30T03:55:01;96352.78;;;16.95;46.43
32197;BME280;18697;42.770;23.400;2022-10-30T03:57:26;96351.53;;;17.16;47.10
32197;BME280;18697;42.770;23.400;2022-10-30T03:59:51;96351.41;;;17.25;46.93
32197;BME280;18697;42.770;23.400;2022-10-30T04:02:16;96360.16;;;17.33;46.40
32197;BME280;18697;42.770;23.400;2022-10-30T04:04:42;96360.66;;;17.31;45.91
32197;BME280;18697;42.770;23.400;2022-10-30T04:07:07;96367.81;;;17.53;45.23
32197;BME280;18697;42.770;23.400;2022-10-30T04:09:33;96363.81;;;17.59;44.82
32197;BME280;18697;42.770;23.400;2022-10-30T04:11:58;96357.69;;;17.81;44.61
32197;BME280;18697;42.770;23.400;2022-10-30T04:14:23;96359.88;;;17.97;44.51
32197;BME280;18697;42.770;23.400;2022-10-30T04:16:48;96353.88;;;18.10;44.25
32197;BME280;18697;42.770;23.400;2022-10-30T04:19:14;96349.03;;;18.11;44.40
32197;BME280;18697;42.770;23.400;2022-10-30T04:21:39;96338.78;;;18.08;43.54
32197;BME280;18697;42.770;23.400;2022-10-30T04:24:07;96344.06;;;18.26;43.78
32197;BME280;18697;42.770;23.400;2022-10-30T04:26:32;96344.28;;;18.22;43.77
32197;BME280;18697;42.770;23.400;2022-10-30T04:28:58;96346.81;;;18.20;43.45
32197;BME280;18697;42.770;23.400;2022-10-30T04:31:23;96343.56;;;18.27;43.42
32197;BME280;18697;42.770;23.400;2022-10-30T04:33:48;96340.03;;;18.32;43.48
32197;BME280;18697;42.770;23.400;2022-10-30T04:36:13;96348.19;;;18.30;43.73
32197;BME280;18697;42.770;23.400;2022-10-30T04:38:41;96351.06;;;18.36;43.65
32197;BME280;18697;42.770;23.400;2022-10-30T04:41:07;96348.00;;;18.39;43.31
32197;BME280;18697;42.770;23.400;2022-10-30T04:43:32;96348.88;;;18.51;43.24
32197;BME280;18697;42.770;23.400;2022-10-30T04:45:58;96348.06;;;18.45;43.22
32197;BME280;18697;42.770;23.400;2022-10-30T04:48:23;96346.78;;;18.46;43.10
32197;BME280;18697;42.770;23.400;2022-10-30T04:50:48;96350.41;;;18.52;43.09
32197;BME280;18697;42.770;23.400;2022-10-30T04:53:16;96347.34;;;18.50;42.86
32197;BME280;18697;42.770;23.400;2022-10-30T04:55:42;96352.16;;;18.44;43.58
32197;BME280;18697;42.770;23.400;2022-10-30T04:58:08;96358.06;;;17.68;40.18
32197;BME280;18697;42.770;23.400;2022-10-30T05:00:35;96344.53;;;17.67;44.79
32197;BME280;18697;42.770;23.400;2022-10-30T05:03:01;96354.22;;;17.66;44.73
32197;BME280;18697;42.770;23.400;2022-10-30T05:05:27;96354.00;;;17.69;45.16
32197;BME280;18697;42.770;23.400;2022-10-30T05:07:53;96362.06;;;17.41;43.86
32197;BME280;18697;42.770;23.400;2022-10-30T05:10:18;96368.28;;;16.90;43.60
32197;BME280;18697;42.770;23.400;2022-10-30T05:12:44;96367.28;;;16.73;46.70
32197;BME280;18697;42.770;23.400;2022-10-30T05:15:10;96369.22;;;16.67;45.62
32197;BME280;18697;42.770;23.400;2022-10-30T05:17:36;96369.94;;;16.32;45.44
32197;BME280;18697;42.770;23.400;2022-10-30T05:20:03;96371.31;;;15.06;48.35
32197;BME280;18697;42.770;23.400;2022-10-30T05:22:29;96374.19;;;15.21;51.58
32197;BME280;18697;42.770;23.400;2022-10-30T05:24:54;96375.88;;;16.55;48.97
32197;BME280;18697;42.770;23.400;2022-10-30T05:27:19;96379.19;;;17.64;46.03
32197;BME280;18697;42.770;23.400;2022-10-30T05:29:45;96380.94;;;18.33;45.22
32197;BME280;18697;42.770;23.400;2022-10-30T05:32:10;96374.59;;;18.70;43.63
32197;BME280;18697;42.770;23.400;2022-10-30T05:34:35;96382.19;;;18.95;42.02
32197;BME280;18697;42.770;23.400;2022-10-30T05:37:01;96373.50;;;18.62;40.81
32197;BME280;18697;42.770;23.400;2022-10-30T05:39:26;96375.22;;;17.70;44.52
32197;BME280;18697;42.770;23.400;2022-10-30T05:41:52;96373.53;;;17.84;46.25
32197;BME280;18697;42.770;23.400;2022-10-30T05:44:18;96379.13;;;18.30;45.29
32197;BME280;18697;42.770;23.400;2022-10-30T05:46:43;96388.66;;;18.13;43.11
32197;BME280;18697;42.770;23.400;2022-10-30T05:49:08;96383.63;;;18.80;44.48
32197;BME280;18697;42.770;23.400;2022-10-30T05:51:34;96394.00;;;19.48;43.13
32197;BME280;18697;42.770;23.400;2022-10-30T05:53:59;96377.31;;;19.98;41.88
32197;BME280;18697;42.770;23.400;2022-10-30T05:56:25;96382.53;;;20.44;40.21
32197;BME280;18697;42.770;23.400;2022-10-30T05:58:50;96375.59;;;20.67;39.57
32197;BME280;18697;42.770;23.400;2022-10-30T06:01:16;96387.94;;;20.64;40.14
32197;BME280;18697;42.770;23.400;2022-10-30T06:03:42;96393.16;;;19.84;38.94
32197;BME280;18697;42.770;23.400;2022-10-30T06:06:08;96386.56;;;19.45;41.38
32197;BME280;18697;42.770;23.400;2022-10-30T06:08:33;96395.44;;;19.75;41.43
32197;BME280;18697;42.770;23.400;2022-10-30T06:10:58;96379.66;;;19.46;42.24
32197;BME280;18697;42.770;23.400;2022-10-30T06:13:24;96385.28;;;20.05;41.25
32197;BME280;18697;42.770;23.400;2022-10-30T06:15:49;96382.22;;;20.31;40.48
32197;BME280;18697;42.770;23.400;2022-10-30T06:18:15;96373.56;;;20.57;39.22
32197;BME280;18697;42.770;23.400;2022-10-30T06:20:40;96371.47;;;20.85;39.26
32197;BME280;18697;42.770;23.400;2022-10-30T06:23:07;96371.97;;;21.00;38.83
32197;BME280;18697;42.770;23.400;2022-10-30T06:25:34;96374.78;;;21.00;38.39
32197;BME280;18697;42.770;23.400;2022-10-30T06:28:00;96377.56;;;21.34;38.66
32197;BME280;18697;42.770;23.400;2022-10-30T06:30:26;96373.75;;;21.09;35.90
32197;BME280;18697;42.770;23.400;2022-10-30T06:32:58;96382.47;;;21.11;37.54
32197;BME280;18697;42.770;23.400;2022-10-30T06:35:24;96372.47;;;20.99;37.59
32197;BME280;18697;42.770;23.400;2022-10-30T06:37:51;96375.53;;;21.07;39.28
32197;BME280;18697;42.770;23.400;2022-10-30T06:40:18;96378.63;;;21.25;38.46
32197;BME280;18697;42.770;23.400;2022-10-30T06:42:47;96385.28;;;21.28;39.10
32197;BME280;18697;42.770;23.400;2022-10-30T06:45:14;96385.25;;;21.45;38.48
32197;BME280;18697;42.770;23.400;2022-10-30T06:47:40;96378.81;;;21.50;37.67
32197;BME280;18697;42.770;23.400;2022-10-30T06:50:09;96377.22;;;21.60;38.02
32197;BME280;18697;42.770;23.400;2022-10-30T06:52:34;96371.22;;;21.75;38.61
32197;BME280;18697;42.770;23.400;2022-10-30T06:55:00;96376.13;;;21.69;39.06
32197;BME280;18697;42.770;23.400;2022-10-30T06:57:25;96374.03;;;21.80;39.58
32197;BME280;18697;42.770;23.400;2022-10-30T06:59:50;96379.88;;;21.93;38.97
32197;BME280;18697;42.770;23.400;2022-10-30T07:02:16;96377.28;;;22.07;38.51
32197;BME280;18697;42.770;23.400;2022-10-30T07:04:41;96376.97;;;22.16;37.53
32197;BME280;18697;42.770;23.400;2022-10-30T07:07:07;96372.75;;;21.81;35.15
32197;BME280;18697;42.770;23.400;2022-10-30T07:09:32;96366.25;;;21.40;38.29
32197;BME280;18697;42.770;23.400;2022-10-30T07:11:58;96367.50;;;21.50;39.24
32197;BME280;18697;42.770;23.400;2022-10-30T07:14:24;96372.88;;;21.53;39.11
32197;BME280;18697;42.770;23.400;2022-10-30T07:16:49;96362.09;;;21.52;37.61
32197;BME280;18697;42.770;23.400;2022-10-30T07:19:14;96364.31;;;20.73;37.76
32197;BME280;18697;42.770;23.400;2022-10-30T07:21:40;96356.38;;;19.51;41.12
32197;BME280;18697;42.770;23.400;2022-10-30T07:24:06;96351.94;;;19.27;44.01
32197;BME280;18697;42.770;23.400;2022-10-30T07:26:31;96368.03;;;19.75;40.90
32197;BME280;18697;42.770;23.400;2022-10-30T07:28:57;96359.53;;;19.69;41.15
32197;BME280;18697;42.770;23.400;2022-10-30T07:31:23;96367.03;;;19.24;42.87
32197;BME280;18697;42.770;23.400;2022-10-30T07:33:48;96356.13;;;18.63;42.48
32197;BME280;18697;42.770;23.400;2022-10-30T07:36:14;96357.41;;;18.99;45.32
32197;BME280;18697;42.770;23.400;2022-10-30T07:38:39;96359.84;;;18.81;42.96
32197;BME280;18697;42.770;23.400;2022-10-30T07:41:04;96359.63;;;18.84;45.48
32197;BME280;18697;42.770;23.400;2022-10-30T07:43:30;96351.44;;;19.34;43.91
32197;BME280;18697;42.770;23.400;2022-10-30T07:45:55;96347.88;;;18.54;43.08
32197;BME280;18697;42.770;23.400;2022-10-30T07:48:20;96350.00;;;17.35;45.38
32197;BME280;18697;42.770;23.400;2022-10-30T07:50:46;96363.25;;;18.01;45.57
32197;BME280;18697;42.770;23.400;2022-10-30T07:53:11;96353.72;;;18.19;45.29
32197;BME280;18697;42.770;23.400;2022-10-30T07:55:36;96349.91;;;17.96;44.78
32197;BME280;18697;42.770;23.400;2022-10-30T07:58:02;96348.31;;;17.90;45.27
32197;BME280;18697;42.770;23.400;2022-10-30T08:00:27;96349.97;;;17.56;45.98
32197;BME280;18697;42.770;23.400;2022-10-30T08:02:54;96351.06;;;17.84;47.70
32197;BME280;18697;42.770;23.400;2022-10-30T08:05:20;96345.13;;;17.56;46.15
32197;BME280;18697;42.770;23.400;2022-10-30T08:07:46;96346.91;;;17.13;46.99
32197;BME280;18697;42.770;23.400;2022-10-30T08:10:12;96343.09;;;17.57;47.04
32197;BME280;18697;42.770;23.400;2022-10-30T08:12:37;96338.28;;;18.09;46.23
32197;BME280;18697;42.770;23.400;2022-10-30T08:15:05;96334.44;;;17.81;46.63
32197;BME280;18697;42.770;23.400;2022-10-30T08:17:30;96324.50;;;18.11;45.65
32197;BME280;18697;42.770;23.400;2022-10-30T08:19:56;96325.59;;;18.51;46.94
32197;BME280;18697;42.770;23.400;2022-10-30T08:22:21;96322.25;;;19.37;45.49
32197;BME280;18697;42.770;23.400;2022-10-30T08:24:46;96322.59;;;19.56;44.64
32197;BME280;18697;42.770;23.400;2022-10-30T08:27:12;96315.81;;;20.24;43.50
32197;BME280;18697;42.770;23.400;2022-10-30T08:29:37;96317.09;;;20.68;41.28
32197;BME280;18697;42.770;23.400;2022-10-30T08:32:03;96317.06;;;20.18;41.61
32197;BME280;18697;42.770;23.400;2022-10-30T08:34:29;96315.28;;;20.20;42.26
32197;BME280;18697;42.770;23.400;2022-10-30T08:36:56;96307.88;;;20.62;42.05
32197;BME280;18697;42.770;23.400;2022-10-30T08:39:22;96307.25;;;21.08;42.43
32197;BME280;18697;42.770;23.400;2022-10-30T08:41:47;96305.41;;;21.27;40.46
32197;BME280;18697;42.770;23.400;2022-10-30T08:44:13;96305.06;;;21.53;40.31
32197;BME280;18697;42.770;23.400;2022-10-30T08:46:38;96298.97;;;21.79;39.83
32197;BME280;18697;42.770;23.400;2022-10-30T08:49:03;96300.25;;;22.25;39.94
32197;BME280;18697;42.770;23.400;2022-10-30T08:51:33;96291.31;;;22.45;39.51
32197;BME280;18697;42.770;23.400;2022-10-30T08:53:59;96295.53;;;22.93;38.56
32197;BME280;18697;42.770;23.400;2022-10-30T08:56:24;96293.38;;;23.23;38.14
32197;BME280;18697;42.770;23.400;2022-10-30T08:58:50;96294.88;;;23.49;37.32
32197;BME280;18697;42.770;23.400;2022-10-30T09:01:16;96290.25;;;23.70;36.64
32197;BME280;18697;42.770;23.400;2022-10-30T09:03:43;96281.78;;;23.83;37.32
32197;BME280;18697;42.770;23.400;2022-10-30T09:06:08;96283.78;;;22.83;36.93
32197;BME280;18697;42.770;23.400;2022-10-30T09:08:34;96280.19;;;22.83;38.59
32197;BME280;18697;42.770;23.400;2022-10-30T09:11:00;96276.94;;;23.41;38.11
32197;BME280;18697;42.770;23.400;2022-10-30T09:13:25;96273.22;;;23.70;37.06
32197;BME280;18697;42.770;23.400;2022-10-30T09:15:50;96268.75;;;22.94;38.29
32197;BME280;18697;42.770;23.400;2022-10-30T09:18:16;96271.81;;;22.96;37.93
32197;BME280;18697;42.770;23.400;2022-10-30T09:20:42;96274.91;;;23.17;37.59
32197;BME280;18697;42.770;23.400;2022-10-30T09:23:07;96274.13;;;23.16;38.35
32197;BME280;18697;42.770;23.400;2022-10-30T09:25:33;96268.00;;;23.12;37.63
32197;BME280;18697;42.770;23.400;2022-10-30T09:27:58;96268.19;;;22.41;38.60
32197;BME280;18697;42.770;23.400;2022-10-30T09:30:24;96260.66;;;21.84;39.91
32197;BME280;18697;42.770;23.400;2022-10-30T09:32:57;96259.91;;;21.42;40.53
32197;BME280;18697;42.770;23.400;2022-10-30T09:35:23;96250.25;;;21.04;41.82
32197;BME280;18697;42.770;23.400;2022-10-30T09:37:49;96257.03;;;21.89;41.67
32197;BME280;18697;42.770;23.400;2022-10-30T09:41:07;96250.00;;;22.61;40.53
32197;BME280;18697;42.770;23.400;2022-10-30T09:46:40;96235.25;;;23.36;38.08
32197;BME280;18697;42.770;23.400;2022-10-30T10:00:23;96219.66;;;23.05;38.38
32197;BME280;18697;42.770;23.400;2022-10-30T10:03:28;96211.69;;;23.65;38.21
32197;BME280;18697;42.770;23.400;2022-10-30T10:05:59;96203.78;;;24.09;37.91
32197;BME280;18697;42.770;23.400;2022-10-30T10:08:34;96199.09;;;24.43;37.25
32197;BME280;18697;42.770;23.400;2022-10-30T10:11:05;96189.69;;;24.75;36.44
32197;BME280;18697;42.770;23.400;2022-10-30T10:13:49;96195.50;;;24.96;36.06
32197;BME280;18697;42.770;23.400;2022-10-30T10:16:18;96185.72;;;25.31;35.48
32197;BME280;18697;42.770;23.400;2022-10-30T10:18:54;96175.34;;;25.33;35.31
32197;BME280;18697;42.770;23.400;2022-10-30T10:21:26;96182.63;;;25.42;35.68
32197;BME280;18697;42.770;23.400;2022-10-30T10:23:54;96175.50;;;25.48;34.99
32197;BME280;18697;42.770;23.400;2022-10-30T10:26:29;96166.41;;;25.63;34.65
32197;BME280;18697;42.770;23.400;2022-10-30T10:42:02;96145.56;;;25.81;34.57
32197;BME280;18697;42.770;23.400;2022-10-30T10:44:52;96138.94;;;26.07;34.34
32197;BME280;18697;42.770;23.400;2022-10-30T10:47:29;96134.75;;;26.29;33.65
32197;BME280;18697;42.770;23.400;2022-10-30T10:52:48;96123.22;;;26.56;32.70
32197;BME280;18697;42.770;23.400;2022-10-30T10:55:20;96119.25;;;26.59;33.01
32197;BME280;18697;42.770;23.400;2022-10-30T10:57:46;96118.31;;;26.64;32.77
32197;BME280;18697;42.770;23.400;2022-10-30T11:00:15;96109.44;;;26.39;33.46
32197;BME280;18697;42.770;23.400;2022-10-30T11:02:50;96113.94;;;26.63;33.61
32197;BME280;18697;42.770;23.400;2022-10-30T11:05:38;96110.25;;;26.47;33.08
32197;BME280;18697;42.770;23.400;2022-10-30T11:08:17;96108.56;;;26.51;33.08
32197;BME280;18697;42.770;23.400;2022-10-30T11:10:45;96102.19;;;26.66;33.42
32197;BME280;18697;42.770;23.400;2022-10-30T11:13:12;96092.78;;;26.50;33.63
32197;BME280;18697;42.770;23.400;2022-10-30T11:15:49;96082.72;;;26.49;33.02
32197;BME280;18697;42.770;23.400;2022-10-30T11:18:18;96089.28;;;26.16;32.98
32197;BME280;18697;42.770;23.400;2022-10-30T11:21:06;96078.88;;;26.39;33.82
32197;BME280;18697;42.770;23.400;2022-10-30T11:23:40;96075.56;;;26.56;33.42
32197;BME280;18697;42.770;23.400;2022-10-30T11:31:21;96068.88;;;26.54;33.05
32197;BME280;18697;42.770;23.400;2022-10-30T11:33:48;96068.31;;;26.55;33.14
32197;BME280;18697;42.770;23.400;2022-10-30T11:36:15;96061.00;;;26.67;33.04
32197;BME280;18697;42.770;23.400;2022-10-30T11:38:41;96065.25;;;26.89;33.09
32197;BME280;18697;42.770;23.400;2022-10-30T11:41:07;96057.38;;;27.10;32.88
32197;BME280;18697;42.770;23.400;2022-10-30T11:43:36;96057.97;;;27.16;32.47
32197;BME280;18697;42.770;23.400;2022-10-30T11:46:03;96029.09;;;26.76;33.07
32197;BME280;18697;42.770;23.400;2022-10-30T11:48:37;96048.25;;;27.12;32.34
32197;BME280;18697;42.770;23.400;2022-10-30T11:51:03;96045.03;;;27.15;33.11
32197;BME280;18697;42.770;23.400;2022-10-30T11:53:42;96039.38;;;27.31;32.95
32197;BME280;18697;42.770;23.400;2022-10-30T11:56:18;96038.66;;;27.45;32.29
32197;BME280;18697;42.770;23.400;2022-10-30T11:58:50;96039.00;;;27.57;32.05
32197;BME280;18697;42.770;23.400;2022-10-30T12:03:50;96025.72;;;27.60;32.28
32197;BME280;18697;42.770;23.400;2022-10-30T12:09:11;96022.50;;;27.63;32.40
32197;BME280;18697;42.770;23.400;2022-10-30T12:11:38;96011.84;;;27.71;32.22
32197;BME280;18697;42.770;23.400;2022-10-30T12:14:22;96000.63;;;27.73;32.15
32197;BME280;18697;42.770;23.400;2022-10-30T12:16:54;95995.88;;;27.84;32.41
32197;BME280;18697;42.770;23.400;2022-10-30T12:19:22;95994.91;;;27.96;31.69
32197;BME280;18697;42.770;23.400;2022-10-30T12:21:50;95998.34;;;27.87;31.67
32197;BME280;18697;42.770;23.400;2022-10-30T12:26:51;95985.75;;;28.21;31.53
32197;BME280;18697;42.770;23.400;2022-10-30T12:29:20;95992.06;;;27.81;30.89
32197;BME280;18697;42.770;23.400;2022-10-30T12:34:30;95984.63;;;27.93;30.53
32197;BME280;18697;42.770;23.400;2022-10-30T12:37:04;95985.00;;;28.12;30.74
32197;BME280;18697;42.770;23.400;2022-10-30T12:42:26;95982.34;;;27.92;30.08
32197;BME280;18697;42.770;23.400;2022-10-30T12:45:06;95978.19;;;27.85;30.68
32197;BME280;18697;42.770;23.400;2022-10-30T12:47:53;95981.19;;;28.10;29.83
32197;BME280;18697;42.770;23.400;2022-10-30T12:50:42;95975.09;;;28.13;30.08
32197;BME280;18697;42.770;23.400;2022-10-30T12:53:20;95968.28;;;27.78;30.07
32197;BME280;18697;42.770;23.400;2022-10-30T12:55:50;95969.22;;;27.50;30.04
32197;BME280;18697;42.770;23.400;2022-10-30T13:00:51;95968.19;;;26.95;31.87
32197;BME280;18697;42.770;23.400;2022-10-30T13:03:52;95958.59;;;26.62;31.17
32197;BME280;18697;42.770;23.400;2022-10-30T13:06:24;95959.31;;;26.18;30.46
32197;BME280;18697;42.770;23.400;2022-10-30T13:09:18;95965.41;;;25.86;30.64
32197;BME280;18697;42.770;23.400;2022-10-30T13:12:07;95956.00;;;25.71;32.03
32197;BME280;18697;42.770;23.400;2022-10-30T13:14:39;95943.50;;;25.74;31.71
32197;BME280;18697;42.770;23.400;2022-10-30T13:17:12;95952.41;;;25.70;31.98
32197;BME280;18697;42.770;23.400;2022-10-30T13:19:39;95941.22;;;25.72;32.61
32197;BME280;18697;42.770;23.400;2022-10-30T13:30:34;95942.00;;;25.52;31.76
32197;BME280;18697;42.770;23.400;2022-10-30T13:33:25;95953.56;;;25.54;32.53
32197;BME280;18697;42.770;23.400;2022-10-30T13:44:44;95943.69;;;25.27;32.75
32197;BME280;18697;42.770;23.400;2022-10-30T13:47:38;95941.69;;;25.14;32.92
32197;BME280;18697;42.770;23.400;2022-10-30T13:50:15;95947.66;;;25.24;33.24
32197;BME280;18697;42.770;23.400;2022-10-30T13:52:47;95936.09;;;25.21;33.47
32197;BME280;18697;42.770;23.400;2022-10-30T13:55:26;95938.28;;;25.15;33.20
32197;BME280;18697;42.770;23.400;2022-10-30T13:58:23;95936.19;;;24.95;33.54
32197;BME280;18697;42.770;23.400;2022-10-30T14:03:42;95935.47;;;24.81;34.32
32197;BME280;18697;42.770;23.400;2022-10-30T14:06:13;95931.69;;;24.66;35.32
32197;BME280;18697;42.770;23.400;2022-10-30T14:11:12;95936.84;;;24.67;35.45
32197;BME280;18697;42.770;23.400;2022-10-30T14:13:55;95930.03;;;24.49;36.43
32197;BME280;18697;42.770;23.400;2022-10-30T14:18:58;95936.84;;;24.33;36.11
32197;BME280;18697;42.770;23.400;2022-10-30T14:24:23;95936.41;;;24.29;37.11
32197;BME280;18697;42.770;23.400;2022-10-30T14:27:07;95936.06;;;24.19;36.89
32197;BME280;18697;42.770;23.400;2022-10-30T14:40:31;95937.00;;;23.75;37.68
32197;BME280;18697;42.770;23.400;2022-10-30T14:43:05;95934.25;;;23.69;37.40
32197;BME280;18697;42.770;23.400;2022-10-30T14:45:42;95939.38;;;23.71;37.79
32197;BME280;18697;42.770;23.400;2022-10-30T14:51:13;95941.41;;;23.44;37.42
32197;BME280;18697;42.770;23.400;2022-10-30T14:58:41;95941.75;;;23.08;38.59
32197;BME280;18697;42.770;23.400;2022-10-30T15:06:42;95934.84;;;22.90;39.21